Original METAR for KCTJ:
072235Z 33004KT 10SM SCT120 27/22 A3019 RMK AO2 LTG DSNT SE AND SW T02740223

Wind: 330° at 4 knots
Visibility: 10 statute miles
Sky conditions: Scattered clouds at 12,000 feet
Temperature: 80.6°F
Dew Point: 71.6°F
Altimeter: 30.19

Remarks:
-- METAR generated by an automated station with a precipitation discriminator.
-- Lightning
-- Precise hourly temperature and dew point: 27.4°C / 22.3°C

NOTE:
This METAR was retrieved from metars.com at:
http://www.metars.com/stations/KCTJ.html


Cessnas2Oshkosh, C2O, CessnaBaseCamp and The Pirep | Testimonials | Donations | FAQ | Privacy | Contact Us
are trademarks of Cessnas 2 Oshkosh, Inc. - Dothan, AL Copyright © 2008 - 2022 Cessnas 2 Oshkosh, Inc. All rights reserved.